Time;durP1;ratioP1;P1;durP2;ratioP2;P2;SDS_P1;SDS_P2;PMS_P1;PMS_P2;Temp;Humidity;BMP_temperature;BMP_pressure;BME280_temperature;BME280_humidity;BME280_pressure;Samples;Min_cycle;Max_cycle;Signal;HPM_P1;HPM_P2
2023/07/26 00:01:49;;;;;;;;;5.60;5.00;;;;;19.43;100.00;98343.69;6336537;20;2740966;-46
2023/07/26 00:04:18;;;;;;;;;6.50;6.50;;;;;19.38;100.00;98345.22;6342116;20;2725300;-44
2023/07/26 00:06:47;;;;;;;;;6.00;6.00;;;;;19.41;100.00;98350.34;6304941;20;2741982;-47
2023/07/26 00:09:16;;;;;;;;;6.40;5.80;;;;;19.23;100.00;98366.97;6333610;20;2744065;-51
2023/07/26 00:11:45;;;;;;;;;5.60;5.60;;;;;19.29;100.00;98363.50;6337325;20;2731560;-48
2023/07/26 00:14:14;;;;;;;;;5.80;5.80;;;;;19.29;100.00;98369.81;6335858;20;2735436;-46
2023/07/26 00:16:44;;;;;;;;;6.60;4.60;;;;;19.29;100.00;98374.41;6332631;20;2733671;-45
2023/07/26 00:19:13;;;;;;;;;5.60;5.00;;;;;19.33;100.00;98394.78;6336180;20;2738842;-47
2023/07/26 00:21:42;;;;;;;;;4.80;4.80;;;;;19.38;100.00;98394.22;6335117;20;2748167;-45
2023/07/26 00:24:11;;;;;;;;;5.00;5.00;;;;;19.46;100.00;98397.75;6301054;20;2737829;-47
2023/07/26 00:26:41;;;;;;;;;6.00;6.00;;;;;19.35;100.00;98391.88;6332249;20;2748293;-44
2023/07/26 00:29:10;;;;;;;;;4.60;4.60;;;;;19.33;100.00;98380.34;6333830;20;2732636;-46
2023/07/26 00:31:39;;;;;;;;;6.20;5.80;;;;;19.44;100.00;98360.84;6334631;20;2737833;-49
2023/07/26 00:34:08;;;;;;;;;7.60;6.00;;;;;19.30;100.00;98365.22;6330731;20;2742975;-46
2023/07/26 00:36:36;;;;;;;;;5.33;5.33;;;;;19.41;100.00;98347.63;6282329;20;2733675;-49
2023/07/26 00:39:05;;;;;;;;;6.80;5.80;;;;;19.32;100.00;98341.38;6336061;20;2743086;-45
2023/07/26 00:41:33;;;;;;;;;3.00;3.00;;;;;19.11;100.00;98333.91;6282401;20;2741936;-45
2023/07/26 00:44:01;;;;;;;;;8.00;4.67;;;;;19.11;100.00;98317.56;6312291;20;2743130;-44
2023/07/26 00:46:30;;;;;;;;;4.00;3.50;;;;;19.05;100.00;98300.09;6341133;20;2744066;-45
2023/07/26 00:49:00;;;;;;;;;6.20;5.60;;;;;18.99;100.00;98306.28;6302304;20;2750328;-46
2023/07/26 00:51:29;;;;;;;;;6.60;5.80;;;;;19.04;100.00;98297.59;6304217;20;2748257;-47
2023/07/26 00:53:59;;;;;;;;;6.00;6.00;;;;;18.97;100.00;98297.47;6334289;20;2742007;-45
2023/07/26 00:56:28;;;;;;;;;6.20;6.20;;;;;18.97;100.00;98288.47;6337251;20;2741949;-47
2023/07/26 00:58:58;;;;;;;;;5.00;5.00;;;;;19.07;100.00;98292.63;6333543;20;2740965;-46
2023/07/26 01:01:27;;;;;;;;;4.80;4.80;;;;;18.96;100.00;98282.19;6336021;20;2750398;-44
2023/07/26 01:03:56;;;;;;;;;6.60;5.60;;;;;19.08;100.00;98279.84;6303497;20;2748322;-50
2023/07/26 01:07:25;;;;;;;;;5.60;5.20;;;;;18.97;100.00;98283.84;6334806;20;2747267;-45
2023/07/26 01:10:20;;;;;;;;;5.80;4.60;;;;;18.95;100.00;98283.19;6301150;20;2745203;-45
2023/07/26 01:13:08;;;;;;;;;4.67;4.67;;;;;19.00;100.00;98272.59;6313052;20;2745168;-46
2023/07/26 01:15:41;;;;;;;;;8.20;5.80;;;;;19.00;100.00;98271.75;6334840;20;2737874;-44
2023/07/26 01:18:14;;;;;;;;;7.40;4.40;;;;;18.94;100.00;98276.06;6339188;20;2739916;-46
2023/07/26 01:20:43;;;;;;;;;6.40;4.80;;;;;18.89;100.00;98266.75;6340831;20;2738848;-47
2023/07/26 01:23:12;;;;;;;;;6.60;4.40;;;;;18.86;100.00;98265.25;6339362;20;2728489;-46
2023/07/26 01:25:41;;;;;;;;;5.60;5.60;;;;;18.79;100.00;98265.13;6340228;20;2736728;-45
2023/07/26 01:28:10;;;;;;;;;6.20;6.20;;;;;18.90;100.00;98266.56;6340350;20;2748259;-46
2023/07/26 01:30:39;;;;;;;;;6.67;6.67;;;;;18.81;100.00;98256.78;6320191;20;2741913;-45
2023/07/26 01:33:09;;;;;;;;;5.40;5.40;;;;;18.82;100.00;98248.44;6339376;20;2741344;-47
2023/07/26 01:35:40;;;;;;;;;4.67;4.67;;;;;18.80;100.00;98233.34;6315555;20;2745131;-47
2023/07/26 01:38:10;;;;;;;;;4.20;4.20;;;;;18.87;100.00;98201.66;6335690;20;2747301;-48
2023/07/26 01:40:40;;;;;;;;;6.00;6.00;;;;;18.80;100.00;98178.94;6342470;20;2733662;-50
2023/07/26 01:43:09;;;;;;;;;5.00;5.00;;;;;18.92;100.00;98193.78;6339567;20;2738919;-44
2023/07/26 01:45:37;;;;;;;;;5.67;4.00;;;;;18.69;100.00;98198.41;6316291;20;2750340;-47
2023/07/26 01:48:06;;;;;;;;;7.00;5.80;;;;;18.61;100.00;98210.19;6338485;20;2738827;-45
2023/07/26 01:50:36;;;;;;;;;5.00;5.00;;;;;18.57;100.00;98212.44;6356022;20;3458768;-45
2023/07/26 01:53:06;;;;;;;;;6.60;4.80;;;;;18.62;100.00;98210.00;6341131;20;2734863;-53
2023/07/26 01:55:35;;;;;;;;;5.40;5.40;;;;;18.65;100.00;98208.81;6340995;20;2740985;-46
2023/07/26 01:58:04;;;;;;;;;5.20;5.20;;;;;18.53;100.00;98211.09;6340843;20;2734643;-47
2023/07/26 02:00:33;;;;;;;;;4.00;4.00;;;;;18.64;100.00;98213.41;6337728;20;2749380;-49
2023/07/26 02:03:02;;;;;;;;;4.80;4.80;;;;;18.50;100.00;98211.44;6307489;20;2748168;-45
2023/07/26 02:05:31;;;;;;;;;5.25;3.50;;;;;18.65;100.00;98219.66;6338927;20;2048322;-44
2023/07/26 02:07:59;;;;;;;;;5.33;5.33;;;;;18.64;100.00;98218.84;6317403;20;2747188;-47
2023/07/26 02:10:28;;;;;;;;;5.60;5.00;;;;;18.70;100.00;98227.28;6338415;20;2742038;-49
2023/07/26 02:12:56;;;;;;;;;2.67;2.67;;;;;18.72;100.00;98225.22;6318293;20;2748193;-46
2023/07/26 02:15:25;;;;;;;;;5.40;5.00;;;;;18.75;100.00;98230.34;6335894;20;2739860;-45
2023/07/26 02:17:54;;;;;;;;;4.80;4.80;;;;;18.79;100.00;98245.25;6335761;20;2743024;-44
2023/07/26 02:20:23;;;;;;;;;6.60;3.60;;;;;18.56;100.00;98254.25;6336860;20;2756516;-45
2023/07/26 02:22:53;;;;;;;;;7.00;5.80;;;;;18.51;100.00;98253.94;6310198;20;2744062;-47
2023/07/26 02:25:22;;;;;;;;;6.40;5.40;;;;;18.47;100.00;98265.34;6340552;20;2737939;-47
2023/07/26 02:27:51;;;;;;;;;4.60;4.60;;;;;18.49;100.00;98258.69;6339274;20;2743031;-48
2023/07/26 02:30:20;;;;;;;;;6.60;6.60;;;;;18.40;100.00;98281.50;6339268;20;2730647;-46
2023/07/26 02:32:49;;;;;;;;;7.60;6.00;;;;;18.42;100.00;98290.31;6343569;20;2748287;-48
2023/07/26 02:35:18;;;;;;;;;6.80;6.80;;;;;18.46;100.00;98297.13;6337584;20;2744019;-47
2023/07/26 02:37:47;;;;;;;;;5.20;5.00;;;;;18.38;100.00;98302.59;6338658;20;2730522;-44
2023/07/26 02:40:15;;;;;;;;;4.67;4.67;;;;;18.41;100.00;98310.38;6315870;20;2742989;-45
2023/07/26 02:42:44;;;;;;;;;5.40;5.40;;;;;18.28;100.00;98310.13;6335362;20;2734772;-46
2023/07/26 02:45:13;;;;;;;;;5.00;5.00;;;;;18.32;100.00;98316.88;6339060;20;2740961;-45
2023/07/26 02:47:42;;;;;;;;;6.00;5.20;;;;;18.36;100.00;98324.50;6337475;20;2739912;-47
2023/07/26 02:50:12;;;;;;;;;8.40;5.80;;;;;18.40;100.00;98327.69;6337236;20;2753426;-49
2023/07/26 02:52:41;;;;;;;;;6.40;5.20;;;;;18.39;100.00;98331.44;6308983;20;2739897;-46
2023/07/26 02:55:10;;;;;;;;;5.60;5.40;;;;;18.44;100.00;98320.91;6338023;20;2742129;-46
2023/07/26 02:57:38;;;;;;;;;7.00;7.00;;;;;18.29;100.00;98330.81;6312158;20;2746104;-44
2023/07/26 03:00:08;;;;;;;;;5.20;5.00;;;;;18.23;100.00;98329.66;6339091;20;2738813;-49
2023/07/26 03:02:37;;;;;;;;;6.60;6.40;;;;;18.17;100.00;98320.34;6340522;20;2732569;-48
2023/07/26 03:05:05;;;;;;;;;7.33;7.00;;;;;18.14;100.00;98322.56;6312144;20;2736998;-46
2023/07/26 03:07:34;;;;;;;;;6.00;5.00;;;;;18.17;100.00;98309.47;6337387;20;2728515;-53
2023/07/26 03:10:04;;;;;;;;;5.60;5.60;;;;;18.13;100.00;98304.56;6339265;20;2731606;-49
2023/07/26 03:12:33;;;;;;;;;5.60;5.60;;;;;18.28;100.00;98296.53;6339067;20;2744003;-46
2023/07/26 03:15:02;;;;;;;;;8.40;5.60;;;;;18.02;100.00;98300.38;6338566;20;2738879;-47
2023/07/26 03:17:32;;;;;;;;;5.00;5.00;;;;;17.91;100.00;98306.19;6338236;20;2743517;-45
2023/07/26 03:20:01;;;;;;;;;9.60;5.60;;;;;17.77;100.00;98314.03;6338495;20;2734714;-44
2023/07/26 03:22:30;;;;;;;;;7.00;5.40;;;;;17.77;100.00;98324.88;6337206;20;2736792;-46
2023/07/26 03:24:59;;;;;;;;;6.00;6.00;;;;;17.69;100.00;98330.34;6338934;20;2743175;-45
2023/07/26 03:27:27;;;;;;;;;7.50;7.50;;;;;17.64;100.00;98324.56;6315888;20;2729603;-45
2023/07/26 03:29:54;;;;;;;;;4.50;4.50;;;;;17.91;100.00;98325.22;6283947;20;2745141;-46
2023/07/26 03:32:23;;;;;;;;;5.40;5.40;;;;;18.11;100.00;98323.75;6309305;20;2742019;-47
2023/07/26 03:34:51;;;;;;;;;9.33;5.67;;;;;18.08;100.00;98321.41;6312830;20;2758802;-45
2023/07/26 03:37:20;;;;;;;;;7.00;5.80;;;;;18.30;100.00;98324.34;6337560;20;2729504;-47
2023/07/26 03:39:49;;;;;;;;;8.40;6.60;;;;;18.01;100.00;98325.84;6339978;20;2739939;-46
2023/07/26 03:42:18;;;;;;;;;5.80;5.80;;;;;18.20;100.00;98322.72;6338668;20;2735749;-48
2023/07/26 03:44:47;;;;;;;;;6.40;6.40;;;;;18.04;100.00;98321.94;6335807;20;2744108;-48
2023/07/26 03:47:16;;;;;;;;;4.60;4.60;;;;;18.09;100.00;98333.97;6337641;20;2743099;-48
2023/07/26 03:49:44;;;;;;;;;5.00;5.00;;;;;18.45;100.00;98321.75;6315966;20;2723207;-48
2023/07/26 03:52:11;;;;;;;;;7.00;6.00;;;;;18.31;100.00;98336.94;6285803;20;2737829;-44
2023/07/26 03:54:42;;;;;;;;;5.86;5.43;;;;;18.35;100.00;98339.13;6328451;20;3444040;-45
2023/07/26 03:57:13;;;;;;;;;6.60;5.60;;;;;18.10;100.00;98349.25;6334515;20;2737802;-47
2023/07/26 03:59:42;;;;;;;;;6.60;5.40;;;;;17.97;100.00;98349.78;6336278;20;2740925;-48
2023/07/26 04:02:11;;;;;;;;;7.00;6.40;;;;;18.00;100.00;98340.44;6336397;20;2735742;-48
2023/07/26 04:04:40;;;;;;;;;10.40;8.00;;;;;18.11;100.00;98356.34;6333579;20;2759666;-46
2023/07/26 04:07:09;;;;;;;;;7.20;6.00;;;;;18.16;100.00;98362.09;6302216;20;2737825;-46
2023/07/26 04:09:36;;;;;;;;;6.00;4.50;;;;;18.10;100.00;98367.41;6314367;20;2747352;-45
2023/07/26 04:12:06;;;;;;;;;7.60;6.60;;;;;18.24;100.00;98371.25;6308084;20;2737867;-45
2023/07/26 04:14:35;;;;;;;;;6.60;6.60;;;;;18.38;100.00;98373.25;6334641;20;2741018;-46
2023/07/26 04:17:05;;;;;;;;;8.00;7.00;;;;;18.36;100.00;98372.56;6336243;20;2739953;-46
2023/07/26 04:19:33;;;;;;;;;8.33;7.67;;;;;18.57;100.00;98372.81;6312336;20;2745089;-47
2023/07/26 04:22:02;;;;;;;;;5.20;4.80;;;;;18.61;100.00;98355.09;6333558;20;2730512;-46
2023/07/26 04:24:31;;;;;;;;;4.40;4.40;;;;;18.76;100.00;98363.38;6339865;20;2746154;-48
2023/07/26 04:27:00;;;;;;;;;7.20;5.80;;;;;18.75;100.00;98361.69;6336807;20;2739958;-47
2023/07/26 04:29:29;;;;;;;;;7.20;5.40;;;;;18.69;100.00;98358.81;6337895;20;2736782;-48
2023/07/26 04:31:58;;;;;;;;;5.00;4.40;;;;;18.84;100.00;98359.78;6336377;20;2748160;-49
2023/07/26 04:34:26;;;;;;;;;11.00;8.00;;;;;18.76;100.00;98351.66;6279271;20;2760833;-46
2023/07/26 04:36:54;;;;;;;;;7.00;6.00;;;;;18.91;100.00;98349.88;6308900;20;2748349;-46
2023/07/26 04:39:22;;;;;;;;;7.67;6.00;;;;;18.83;100.00;98355.38;6316088;20;2739919;-45
2023/07/26 04:41:51;;;;;;;;;7.20;5.60;;;;;18.94;100.00;98368.53;6336455;20;2748383;-49
2023/07/26 04:44:20;;;;;;;;;6.00;6.00;;;;;18.84;100.00;98370.66;6301478;20;2737153;-45
2023/07/26 04:46:49;;;;;;;;;5.80;5.80;;;;;18.93;100.00;98382.31;6337041;20;2736879;-50
2023/07/26 04:49:18;;;;;;;;;6.00;6.00;;;;;19.02;100.00;98384.81;6336826;20;2741952;-46
2023/07/26 04:51:47;;;;;;;;;8.20;6.80;;;;;19.15;100.00;98377.94;6336606;20;2735695;-46
2023/07/26 04:54:16;;;;;;;;;6.40;4.60;;;;;19.13;100.00;98369.09;6336663;20;2741952;-45
2023/07/26 04:56:45;;;;;;;;;6.60;6.60;;;;;19.35;100.00;98376.38;6334316;20;2746246;-45
2023/07/26 04:59:15;;;;;;;;;7.80;6.00;;;;;19.17;100.00;98379.44;6306009;20;2735790;-46
2023/07/26 05:01:43;;;;;;;;;7.00;5.67;;;;;19.26;100.00;98385.66;6310626;20;2739978;-46
2023/07/26 05:04:12;;;;;;;;;8.40;8.40;;;;;19.26;100.00;98391.09;6337696;20;2754622;-52
2023/07/26 05:06:41;;;;;;;;;6.00;6.00;;;;;19.48;100.00;98398.41;6305247;20;2744086;-45
2023/07/26 05:09:09;;;;;;;;;7.67;7.33;;;;;19.63;100.00;98387.56;6306282;20;2739948;-47
2023/07/26 05:11:37;;;;;;;;;9.33;7.67;;;;;19.53;100.00;98393.25;6306721;20;2736830;-47
2023/07/26 05:14:06;;;;;;;;;8.40;8.40;;;;;19.55;100.00;98389.50;6335617;20;2739879;-46
2023/07/26 05:16:35;;;;;;;;;7.00;7.00;;;;;19.44;100.00;98383.47;6335454;20;2746490;-48
2023/07/26 05:19:03;;;;;;;;;11.00;8.00;;;;;19.49;100.00;98391.94;6314966;20;2761832;-45
2023/07/26 05:21:32;;;;;;;;;7.00;7.00;;;;;19.56;100.00;98394.75;6335860;20;2752401;-45
2023/07/26 05:24:02;;;;;;;;;8.00;8.00;;;;;19.46;100.00;98392.31;6285238;20;2742040;-44
2023/07/26 05:26:31;;;;;;;;;8.40;7.20;;;;;19.67;100.00;98396.25;6333901;20;2760092;-44
2023/07/26 05:28:59;;;;;;;;;7.67;6.67;;;;;19.83;100.00;98387.91;6276992;20;2739843;-47
2023/07/26 05:31:26;;;;;;;;;6.67;6.67;;;;;19.90;99.96;98385.28;6317313;20;2737781;-46
2023/07/26 05:33:56;;;;;;;;;12.40;11.40;;;;;19.80;100.00;98377.41;6330562;20;2791961;-45
2023/07/26 05:36:24;;;;;;;;;8.67;7.67;;;;;19.81;100.00;98378.25;6280299;20;2728598;-49
2023/07/26 05:38:52;;;;;;;;;10.33;10.33;;;;;19.92;100.00;98386.78;6310531;20;2783657;-45
2023/07/26 05:41:20;;;;;;;;;9.33;9.33;;;;;19.98;99.94;98387.91;6307511;20;2768010;-46
2023/07/26 05:43:48;;;;;;;;;8.00;8.00;;;;;20.03;99.52;98390.94;6311192;20;2742998;-45
2023/07/26 05:46:16;;;;;;;;;10.00;9.00;;;;;20.15;99.23;98388.59;6309870;20;2760757;-47
2023/07/26 05:48:44;;;;;;;;;11.67;11.00;;;;;20.15;98.32;98391.31;6315796;20;2794073;-45
2023/07/26 05:51:12;;;;;;;;;11.00;10.00;;;;;20.16;98.78;98384.81;6310677;20;2796114;-47
2023/07/26 05:53:40;;;;;;;;;8.00;8.00;;;;;20.27;97.03;98387.06;6313380;20;2752383;-44
2023/07/26 05:56:08;;;;;;;;;10.33;10.33;;;;;20.33;96.22;98388.22;6313186;20;2785858;-45
2023/07/26 05:58:36;;;;;;;;;8.33;7.33;;;;;20.47;95.59;98391.97;6313606;20;2754515;-44
2023/07/26 06:01:04;;;;;;;;;9.00;9.00;;;;;20.38;95.47;98397.53;6315942;20;3468037;-44
2023/07/26 06:03:35;;;;;;;;;7.67;7.67;;;;;20.52;95.60;98394.97;6318964;20;2750336;-46
2023/07/26 06:06:05;;;;;;;;;11.80;8.00;;;;;20.55;94.40;98386.44;6341972;20;2761803;-46
2023/07/26 06:08:34;;;;;;;;;7.00;7.00;;;;;20.44;95.76;98384.19;6311569;20;2737890;-49
2023/07/26 06:11:03;;;;;;;;;7.60;6.80;;;;;20.68;94.18;98386.59;6342835;20;2750509;-47
2023/07/26 06:13:33;;;;;;;;;8.40;8.40;;;;;20.67;94.63;98384.06;6306927;20;2749378;-46
2023/07/26 06:16:02;;;;;;;;;8.20;7.20;;;;;20.62;92.00;98392.84;6307423;20;2738930;-46
2023/07/26 06:18:31;;;;;;;;;6.80;6.80;;;;;20.88;90.65;98392.31;6306487;20;2741988;-45
2023/07/26 06:21:00;;;;;;;;;7.60;6.20;;;;;20.92;89.72;98388.13;6310208;20;2734665;-47
2023/07/26 06:23:29;;;;;;;;;5.80;5.80;;;;;20.72;91.71;98393.38;6340516;20;2741028;-46
2023/07/26 06:25:58;;;;;;;;;6.80;5.60;;;;;20.80;90.05;98386.94;6342075;20;2748164;-47
2023/07/26 06:28:27;;;;;;;;;5.40;5.40;;;;;20.61;89.84;98391.13;6307926;20;2742077;-45
2023/07/26 06:30:56;;;;;;;;;2.67;2.67;;;;;20.75;89.34;98387.53;6286004;20;2748242;-46
2023/07/26 06:33:26;;;;;;;;;6.00;6.00;;;;;21.02;89.10;98393.28;6340229;20;2743111;-47
2023/07/26 06:35:55;;;;;;;;;7.67;7.67;;;;;20.94;89.19;98401.59;6269849;20;2742005;-49
2023/07/26 06:38:24;;;;;;;;;5.00;5.00;;;;;20.99;90.53;98397.25;6337773;20;2745115;-48
2023/07/26 06:40:53;;;;;;;;;7.00;7.00;;;;;20.62;90.84;98403.75;6309227;20;2739876;-45
2023/07/26 06:43:22;;;;;;;;;8.00;6.60;;;;;20.71;91.95;98408.03;6341492;20;2735769;-49
2023/07/26 06:45:52;;;;;;;;;7.60;7.60;;;;;20.70;91.86;98400.91;6341209;20;2746138;-44
2023/07/26 06:48:21;;;;;;;;;8.00;6.60;;;;;20.74;92.10;98402.19;6307444;20;2741950;-46
2023/07/26 06:50:50;;;;;;;;;7.40;6.60;;;;;20.69;89.61;98409.25;6342723;20;2732792;-45
2023/07/26 06:53:20;;;;;;;;;5.60;5.60;;;;;20.66;89.70;98415.94;6338683;20;2732649;-45
2023/07/26 06:55:49;;;;;;;;;6.80;6.80;;;;;20.81;88.64;98421.38;6340067;20;2748191;-48
2023/07/26 06:58:18;;;;;;;;;6.60;5.60;;;;;21.10;87.85;98420.47;6307442;20;2734655;-49
2023/07/26 07:00:47;;;;;;;;;6.00;5.60;;;;;21.14;87.58;98419.03;6340689;20;2744040;-46
2023/07/26 07:03:16;;;;;;;;;6.20;6.20;;;;;20.94;86.89;98428.88;6340762;20;2746124;-48
2023/07/26 07:05:47;;;;;;;;;4.80;3.00;;;;;20.93;87.25;98432.63;6323223;20;2479451;-47
2023/07/26 07:08:16;;;;;;;;;4.00;4.00;;;;;20.60;87.71;98436.66;6336904;20;2738214;-47
2023/07/26 07:10:45;;;;;;;;;5.40;5.40;;;;;20.35;88.86;98436.06;6337199;20;2739907;-44
2023/07/26 07:13:14;;;;;;;;;5.80;4.00;;;;;20.72;87.63;98441.59;6340051;20;2749346;-45
2023/07/26 07:15:43;;;;;;;;;4.60;4.20;;;;;20.55;88.30;98449.16;6307020;20;2748209;-46
2023/07/26 07:18:12;;;;;;;;;6.20;5.20;;;;;20.43;88.00;98448.75;6305748;20;2740256;-44
2023/07/26 07:20:43;;;;;;;;;4.00;4.00;;;;;20.61;88.22;98457.41;6316909;20;2752365;-44
2023/07/26 07:23:12;;;;;;;;;3.40;3.40;;;;;20.39;87.94;98461.06;6337322;20;2746123;-45
2023/07/26 07:25:40;;;;;;;;;26.00;8.50;;;;;20.70;87.83;98455.47;6312056;20;2826370;-45
2023/07/26 07:28:08;;;;;;;;;5.00;3.00;;;;;20.69;86.54;98461.94;6283475;20;2742982;-48
2023/07/26 07:30:37;;;;;;;;;4.60;4.60;;;;;20.88;86.53;98462.38;6338436;20;2745192;-45
2023/07/26 07:33:05;;;;;;;;;4.33;4.00;;;;;20.55;86.34;98470.97;6340779;20;1907624;-45
2023/07/26 07:35:33;;;;;;;;;4.67;4.67;;;;;20.85;86.89;98469.06;6285790;20;2745216;-45
2023/07/26 07:38:03;;;;;;;;;5.60;5.60;;;;;20.44;87.39;98472.25;6336467;20;2739975;-44
2023/07/26 07:40:32;;;;;;;;;3.40;3.00;;;;;20.48;87.46;98486.34;6338193;20;2754475;-48
2023/07/26 07:43:00;;;;;;;;;4.00;4.00;;;;;20.53;87.88;98497.56;6285916;20;2748287;-49
2023/07/26 07:45:30;;;;;;;;;5.20;4.00;;;;;20.35;87.83;98498.78;6340295;20;2747168;-44
2023/07/26 07:47:59;;;;;;;;;4.80;4.80;;;;;20.42;89.36;98511.66;6306096;20;2728464;-45
2023/07/26 07:50:27;;;;;;;;;4.33;4.33;;;;;20.15;92.49;98511.25;6314733;20;2740995;-45
2023/07/26 07:52:56;;;;;;;;;4.60;4.60;;;;;20.29;93.41;98517.75;6337928;20;2732592;-48
2023/07/26 07:55:25;;;;;;;;;7.00;4.60;;;;;20.11;96.44;98526.25;6338096;20;2750306;-44
2023/07/26 07:57:53;;;;;;;;;7.33;4.67;;;;;20.09;98.94;98533.75;6290096;20;2733730;-48
2023/07/26 08:00:21;;;;;;;;;4.67;4.67;;;;;20.03;100.00;98529.06;6313981;20;2749235;-49
2023/07/26 08:02:51;;;;;;;;;6.80;4.00;;;;;20.04;100.00;98539.78;6337715;20;2748270;-45
2023/07/26 08:05:20;;;;;;;;;6.40;5.20;;;;;20.06;100.00;98539.56;6305828;20;2736782;-45
2023/07/26 08:07:54;;;;;;;;;5.00;5.00;;;;;19.93;97.61;98537.47;6339085;20;2739982;-46
2023/07/26 08:10:23;;;;;;;;;6.60;6.20;;;;;20.03;97.43;98534.50;6336146;20;2734753;-46
2023/07/26 08:12:51;;;;;;;;;3.67;3.67;;;;;19.90;96.41;98532.38;6313320;20;2736732;-50
2023/07/26 08:15:20;;;;;;;;;6.40;5.00;;;;;19.86;97.74;98556.44;6333791;20;2739883;-49
2023/07/26 08:17:49;;;;;;;;;4.00;4.00;;;;;19.65;98.98;98553.50;6335833;20;2748300;-50
2023/07/26 08:20:17;;;;;;;;;4.00;4.00;;;;;19.61;95.21;98554.88;6282999;20;2751349;-45
2023/07/26 08:22:46;;;;;;;;;4.80;4.80;;;;;19.62;96.43;98545.69;6335061;20;2748622;-48
2023/07/26 08:25:15;;;;;;;;;4.20;4.20;;;;;20.13;95.07;98548.72;6333047;20;2740018;-46
2023/07/26 08:27:44;;;;;;;;;6.00;4.00;;;;;20.36;94.10;98562.31;6334257;20;2743099;-47
2023/07/26 08:30:13;;;;;;;;;5.00;4.80;;;;;20.31;95.56;98559.31;6339315;20;2748303;-45
2023/07/26 08:32:42;;;;;;;;;56.25;28.75;;;;;20.02;95.21;98560.06;6309772;20;3603410;-47
2023/07/26 08:35:11;;;;;;;;;42.00;25.67;;;;;20.15;94.53;98572.03;6304458;20;1912969;-46
2023/07/26 08:37:40;;;;;;;;;5.60;5.60;;;;;20.26;94.54;98568.03;6337542;20;2734659;-43
2023/07/26 08:40:09;;;;;;;;;6.60;6.40;;;;;20.13;96.01;98567.81;6333529;20;2743005;-46
2023/07/26 08:42:38;;;;;;;;;5.33;5.33;;;;;19.47;96.39;98567.38;6314942;20;2748219;-44
2023/07/26 08:45:07;;;;;;;;;3.67;3.67;;;;;19.30;98.78;98566.63;6308775;20;2752413;-46
2023/07/26 08:47:37;;;;;;;;;4.40;4.40;;;;;19.30;99.37;98569.34;6337256;20;2745182;-44
2023/07/26 08:50:07;;;;;;;;;4.80;4.20;;;;;19.22;100.00;98574.81;6339053;20;2744038;-47
2023/07/26 08:52:36;;;;;;;;;4.00;4.00;;;;;19.34;100.00;98578.00;6314232;20;2752432;-46
2023/07/26 08:55:06;;;;;;;;;4.67;4.33;;;;;19.17;100.00;98559.03;6312760;20;2743065;-47
2023/07/26 08:57:35;;;;;;;;;6.60;4.60;;;;;19.27;100.00;98570.56;6335492;20;2734814;-46
2023/07/26 09:00:05;;;;;;;;;2.80;2.80;;;;;19.12;99.63;98557.88;6334495;20;2748281;-47
2023/07/26 09:02:36;;;;;;;;;5.00;5.00;;;;;18.95;98.12;98563.34;6330177;20;2737928;-46
2023/07/26 09:05:06;;;;;;;;;3.60;2.60;;;;;19.02;99.54;98579.84;6338321;20;2737856;-45
2023/07/26 09:07:35;;;;;;;;;2.80;2.80;;;;;19.07;98.73;98582.88;6332341;20;2735826;-45
2023/07/26 09:10:04;;;;;;;;;11.33;7.33;;;;;18.98;99.96;98581.19;6307058;20;2752463;-48
2023/07/26 09:12:32;;;;;;;;;3.00;2.67;;;;;18.81;100.00;98583.13;6312530;20;2745071;-46
2023/07/26 09:15:05;;;;;;;;;5.20;4.60;;;;;18.98;100.00;98584.75;6334954;20;2748207;-46
2023/07/26 09:17:41;;;;;;;;;4.00;4.00;;;;;18.92;99.67;98596.34;6303689;20;2750364;-45
2023/07/26 09:20:24;;;;;;;;;2.67;2.67;;;;;18.99;100.00;98600.09;6280809;20;2745103;-49
2023/07/26 09:23:06;;;;;;;;;4.60;4.60;;;;;18.83;100.00;98602.84;6338194;20;2748172;-50
2023/07/26 09:25:37;;;;;;;;;4.33;4.33;;;;;18.75;100.00;98620.03;6313003;20;2743058;-45
2023/07/26 09:28:14;;;;;;;;;5.33;3.00;;;;;18.50;100.00;98623.78;6314810;20;2736842;-49
2023/07/26 09:30:50;;;;;;;;;4.67;4.67;;;;;18.48;100.00;98626.66;6317144;20;2747151;-47
2023/07/26 09:33:22;;;;;;;;;5.00;4.00;;;;;18.49;100.00;98622.94;6335626;20;2747186;-47
2023/07/26 09:35:52;;;;;;;;;4.40;4.40;;;;;18.36;100.00;98625.31;6340963;20;2735795;-48
2023/07/26 09:38:26;;;;;;;;;6.20;5.80;;;;;18.55;100.00;98638.53;6335194;20;2741961;-43
2023/07/26 09:40:55;;;;;;;;;5.00;4.75;;;;;18.61;100.00;98631.56;6340153;20;2057700;-44
2023/07/26 09:43:32;;;;;;;;;9.00;6.40;;;;;18.42;100.00;98621.91;6340725;20;2740969;-46
2023/07/26 09:46:03;;;;;;;;;7.80;5.20;;;;;18.54;100.00;98620.53;6310428;20;2746602;-48
2023/07/26 09:48:36;;;;;;;;;5.00;5.00;;;;;18.71;100.00;98628.66;6337950;20;2729510;-46
2023/07/26 09:51:21;;;;;;;;;6.20;4.60;;;;;18.99;100.00;98621.00;6338735;20;2734726;-43
2023/07/26 09:53:58;;;;;;;;;8.00;8.00;;;;;19.19;100.00;98616.00;6312391;20;2748340;-44
2023/07/26 09:56:33;;;;;;;;;3.60;3.60;;;;;19.27;98.61;98613.22;6334561;20;2756591;-45
2023/07/26 09:59:09;;;;;;;;;4.50;4.50;;;;;19.30;97.08;98610.19;6328584;20;1796359;-46
2023/07/26 10:01:44;;;;;;;;;9.00;6.40;;;;;19.74;97.68;98602.28;6340648;20;2737845;-44
2023/07/26 10:04:16;;;;;;;;;4.67;4.67;;;;;19.71;97.88;98604.53;6319179;20;2743129;-44
2023/07/26 10:06:49;;;;;;;;;6.67;5.67;;;;;19.55;96.02;98612.78;6317576;20;2745063;-46
2023/07/26 10:09:21;;;;;;;;;5.71;4.57;;;;;19.56;97.37;98618.03;6358400;20;3461742;-51
2023/07/26 10:11:52;;;;;;;;;6.80;6.00;;;;;19.74;95.43;98613.19;6341897;20;2742999;-44
2023/07/26 10:14:24;;;;;;;;;5.29;4.14;;;;;19.61;95.54;98617.50;6359826;20;3460765;-44
2023/07/26 10:16:53;;;;;;;;;5.00;5.00;;;;;19.58;94.38;98613.25;6316203;20;2741008;-45
2023/07/26 10:19:26;;;;;;;;;5.20;4.20;;;;;19.66;93.61;98604.19;6340173;20;2746186;-45
2023/07/26 10:21:56;;;;;;;;;4.40;4.40;;;;;19.79;93.88;98618.09;6339048;20;2734691;-45
2023/07/26 10:24:26;;;;;;;;;5.00;5.00;;;;;19.76;93.11;98626.63;6316343;20;2739869;-44
2023/07/26 10:26:56;;;;;;;;;4.40;4.40;;;;;19.44;93.79;98628.47;6339458;20;2741973;-45
2023/07/26 10:29:26;;;;;;;;;4.60;4.60;;;;;19.63;93.91;98623.63;6334963;20;2732727;-44
2023/07/26 10:32:06;;;;;;;;;8.20;7.20;;;;;19.67;92.65;98630.44;6340995;20;2735716;-46
2023/07/26 10:34:36;;;;;;;;;5.80;5.80;;;;;19.94;92.63;98635.38;6341986;20;2741943;-44
2023/07/26 10:37:16;;;;;;;;;4.00;4.00;;;;;20.07;92.43;98629.34;6317674;20;2735678;-43
2023/07/26 10:39:45;;;;;;;;;5.00;5.00;;;;;20.29;90.90;98624.91;6335080;20;2747248;-45
2023/07/26 10:42:35;;;;;;;;;4.00;4.00;;;;;20.51;90.35;98633.22;6340733;20;2748285;-46
2023/07/26 10:45:05;;;;;;;;;6.60;6.00;;;;;20.53;88.31;98639.34;6338546;20;2738377;-44
2023/07/26 10:47:51;;;;;;;;;6.20;5.60;;;;;20.96;87.90;98645.97;6339148;20;2735696;-45
2023/07/26 10:50:25;;;;;;;;;5.00;4.80;;;;;21.07;87.74;98630.19;6339097;20;2727368;-44
2023/07/26 10:52:54;;;;;;;;;6.80;4.60;;;;;21.85;84.69;98628.69;6340132;20;2734680;-43
2023/07/26 10:55:26;;;;;;;;;4.80;4.40;;;;;21.83;82.51;98630.78;6329772;20;2748174;-44
2023/07/26 10:57:57;;;;;;;;;5.40;5.00;;;;;22.31;81.18;98633.84;6306800;20;2748236;-44
2023/07/26 11:00:34;;;;;;;;;5.00;5.00;;;;;21.90;81.17;98632.50;6314185;20;2749378;-43
2023/07/26 11:03:04;;;;;;;;;7.00;5.20;;;;;21.99;80.65;98624.22;6339186;20;2740986;-45
2023/07/26 11:05:38;;;;;;;;;4.60;4.60;;;;;22.24;79.64;98625.53;6307601;20;2754886;-44
2023/07/26 11:08:08;;;;;;;;;5.00;5.00;;;;;21.41;79.52;98632.38;6310423;20;2735791;-45
2023/07/26 11:10:49;;;;;;;;;5.20;4.00;;;;;21.60;80.10;98631.75;6337552;20;2737910;-46
2023/07/26 11:13:26;;;;;;;;;11.33;9.67;;;;;21.99;78.14;98636.00;6314697;20;2785718;-44
2023/07/26 11:15:56;;;;;;;;;9.80;9.80;;;;;21.98;78.88;98634.28;6337245;20;2781922;-44
2023/07/26 11:18:45;;;;;;;;;7.00;7.00;;;;;21.99;77.63;98654.28;6308674;20;2736847;-49
2023/07/26 11:21:15;;;;;;;;;4.20;4.20;;;;;21.81;78.67;98643.78;6338779;20;2750416;-45
2023/07/26 11:23:45;;;;;;;;;5.60;4.60;;;;;22.26;76.61;98633.56;6306796;20;2745094;-45
2023/07/26 11:26:14;;;;;;;;;5.00;5.00;;;;;21.75;77.94;98628.13;6308254;20;2735715;-44